createdAt,value
2023-02-23T16:34:19.794Z,19.10
2023-02-23T16:36:53.266Z,19.00
2023-02-23T16:39:25.315Z,19.10
2023-02-23T16:41:53.285Z,19.10
2023-02-23T16:44:26.336Z,19.10
2023-02-23T16:47:16.017Z,19.20
2023-02-23T16:49:45.218Z,19.20
2023-02-23T16:52:18.488Z,19.30
2023-02-23T16:54:48.531Z,19.30
2023-02-23T16:57:23.461Z,19.30
2023-02-23T16:59:52.012Z,19.30
2023-02-23T17:02:22.679Z,19.30
2023-02-23T17:04:58.762Z,19.40
2023-02-23T17:07:26.688Z,19.40
2023-02-23T17:09:54.568Z,19.40
2023-02-23T17:12:22.375Z,19.30
2023-02-23T17:14:50.692Z,19.30
2023-02-23T17:17:21.615Z,19.40
2023-02-23T17:19:50.830Z,19.40
2023-02-23T17:22:18.733Z,19.40
2023-02-23T17:24:46.572Z,19.40
2023-02-23T17:27:14.434Z,19.30
2023-02-23T17:29:42.917Z,19.30
2023-02-23T17:32:10.890Z,19.40
2023-02-23T17:34:39.802Z,19.40
2023-02-23T17:37:09.042Z,19.40
2023-02-23T17:39:37.680Z,19.30
2023-02-23T17:42:06.549Z,19.40
2023-02-23T17:44:34.395Z,19.40
2023-02-23T17:47:02.271Z,19.30
2023-02-23T17:49:30.188Z,19.30
2023-02-23T17:51:58.127Z,19.40
2023-02-23T17:54:29.433Z,19.40
2023-02-23T17:56:57.911Z,19.40
2023-02-23T17:59:25.797Z,19.40
2023-02-23T18:01:53.678Z,19.40
2023-02-23T18:04:23.273Z,19.40
2023-02-23T18:06:51.142Z,19.40
2023-02-23T18:09:18.981Z,19.50
2023-02-23T18:11:48.480Z,19.50
2023-02-23T18:14:17.068Z,19.50
2023-02-23T18:16:44.975Z,19.60
2023-02-23T18:19:13.044Z,19.60
2023-02-23T18:21:41.750Z,19.60
2023-02-23T18:24:09.650Z,19.60
2023-02-23T18:26:37.513Z,19.60
2023-02-23T18:29:07.283Z,19.60
2023-02-23T18:31:35.585Z,19.60
2023-02-23T18:34:03.491Z,19.60
2023-02-23T18:36:35.340Z,19.60
2023-02-23T18:39:04.978Z,19.60
2023-02-23T18:41:33.345Z,19.60
2023-02-23T18:44:02.375Z,19.60
2023-02-23T18:46:32.052Z,19.50
2023-02-23T18:49:00.119Z,19.40
2023-02-23T18:51:28.475Z,19.30
2023-02-23T18:53:56.769Z,19.30
2023-02-23T18:56:28.024Z,19.30
2023-02-23T18:58:57.982Z,19.30
2023-02-23T19:01:27.584Z,19.30
2023-02-23T19:03:59.525Z,19.30
2023-02-23T19:06:28.295Z,19.40
2023-02-23T19:08:59.155Z,19.40
2023-02-23T19:11:29.253Z,19.40
2023-02-23T19:13:58.894Z,19.50
2023-02-23T19:16:30.047Z,19.50
2023-02-23T19:19:00.106Z,19.50
2023-02-23T19:21:28.507Z,19.50
2023-02-23T19:23:57.974Z,19.50
2023-02-23T19:26:26.753Z,19.50
2023-02-23T19:28:54.660Z,19.50
2023-02-23T19:31:25.948Z,19.50
2023-02-23T19:33:56.179Z,19.50
2023-02-23T19:36:29.843Z,19.50
2023-02-23T19:39:05.830Z,19.50
2023-02-23T19:41:34.871Z,19.50
2023-02-23T19:44:02.836Z,19.50
2023-02-23T19:46:31.205Z,19.50
2023-02-23T19:48:59.118Z,19.50
2023-02-23T19:51:28.501Z,19.50
2023-02-23T19:53:57.554Z,19.50
2023-02-23T19:56:27.846Z,19.60
2023-02-23T19:58:56.082Z,19.60
2023-02-23T20:01:27.503Z,19.70
2023-02-23T20:03:56.606Z,19.60
2023-02-23T20:06:26.999Z,19.50
2023-02-23T20:08:58.594Z,19.50
2023-02-23T20:11:26.578Z,19.50
2023-02-23T20:13:55.536Z,19.40
2023-02-23T20:16:29.070Z,19.40
2023-02-23T20:18:57.847Z,19.50
2023-02-23T20:21:27.573Z,19.50
2023-02-23T20:23:57.347Z,19.50
2023-02-23T20:26:27.388Z,19.50
2023-02-23T20:28:56.710Z,19.60
2023-02-23T20:31:26.984Z,19.60
2023-02-23T20:33:56.261Z,19.50
2023-02-23T20:36:25.652Z,19.50
2023-02-23T20:38:53.778Z,19.50
2023-02-23T20:41:23.572Z,19.50
2023-02-23T20:43:52.480Z,19.40
2023-02-23T20:46:21.149Z,19.40
2023-02-23T20:48:50.432Z,19.40
2023-02-23T20:51:19.938Z,19.40
2023-02-23T20:53:48.950Z,19.40
2023-02-23T20:56:19.237Z,19.40
2023-02-23T20:58:48.516Z,19.40
2023-02-23T21:01:20.052Z,19.50
2023-02-23T21:03:48.291Z,19.50
2023-02-23T21:06:16.990Z,19.50
2023-02-23T21:08:48.704Z,19.50
2023-02-23T21:11:17.129Z,19.50
2023-02-23T21:13:45.514Z,19.50
2023-02-23T21:16:16.973Z,19.50
2023-02-23T21:18:45.318Z,19.50
2023-02-23T21:21:15.621Z,19.60
2023-02-23T21:23:44.773Z,19.60
2023-02-23T21:26:14.190Z,19.60
2023-02-23T21:28:43.139Z,19.60
2023-02-23T21:31:12.733Z,19.60
2023-02-23T21:33:43.348Z,19.60
2023-02-23T21:36:13.049Z,19.60
2023-02-23T21:38:43.228Z,19.50
2023-02-23T21:41:12.182Z,19.60
2023-02-23T21:43:41.476Z,19.50
2023-02-23T21:46:09.989Z,19.60
2023-02-23T21:48:38.133Z,19.50
2023-02-23T21:51:09.316Z,19.50
2023-02-23T21:53:38.385Z,19.50
2023-02-23T21:56:07.621Z,19.50
2023-02-23T21:58:35.468Z,19.50
2023-02-23T22:01:11.457Z,19.50
2023-02-23T22:03:40.580Z,19.50
2023-02-23T22:06:09.801Z,19.50
2023-02-23T22:08:38.569Z,19.50
2023-02-23T22:11:08.954Z,19.50
2023-02-23T22:13:37.415Z,19.50
2023-02-23T22:16:06.891Z,19.50
2023-02-23T22:18:34.826Z,19.50
2023-02-23T22:21:04.538Z,19.50
2023-02-23T22:23:34.452Z,19.50
2023-02-23T22:26:03.045Z,19.50
2023-02-23T22:28:31.518Z,19.50
2023-02-23T22:31:04.244Z,19.40
2023-02-23T22:33:32.160Z,19.50
2023-02-23T22:36:01.829Z,19.60
2023-02-23T22:38:30.668Z,19.60
2023-02-23T22:41:00.246Z,19.70
2023-02-23T22:43:30.645Z,19.60
2023-02-23T22:45:58.802Z,19.60
2023-02-23T22:48:28.384Z,19.60
2023-02-23T22:50:57.141Z,19.60
2023-02-23T22:53:25.802Z,19.50
2023-02-23T22:55:55.537Z,19.50
2023-02-23T22:58:26.554Z,19.50
2023-02-23T23:01:03.797Z,19.40
2023-02-23T23:03:33.625Z,19.40
2023-02-23T23:06:04.241Z,19.30
2023-02-23T23:08:36.413Z,19.40
2023-02-23T23:11:09.320Z,19.40
2023-02-23T23:13:44.797Z,19.40
2023-02-23T23:16:25.505Z,19.40
2023-02-23T23:19:02.332Z,19.30
2023-02-23T23:21:32.134Z,19.40
2023-02-23T23:24:01.734Z,19.40
2023-02-23T23:26:31.739Z,19.30
2023-02-23T23:29:04.603Z,19.30
2023-02-23T23:31:34.884Z,19.40
2023-02-23T23:34:04.444Z,19.50
2023-02-23T23:36:37.173Z,19.50
2023-02-23T23:39:07.293Z,19.50
2023-02-23T23:41:35.518Z,19.50
2023-02-23T23:44:05.819Z,19.50
2023-02-23T23:46:37.412Z,19.50
2023-02-23T23:49:12.388Z,19.50
2023-02-23T23:51:44.691Z,19.50
2023-02-23T23:54:14.980Z,19.50
2023-02-23T23:56:43.972Z,19.50
2023-02-23T23:59:16.365Z,19.40
